sensor_id;sensor_type;location;lat;lon;timestamp;temperature;humidity
14349;DHT22;7258;50.376;8.742;2023-08-07T00:01:01;13.40;99.90
14349;DHT22;7258;50.376;8.742;2023-08-07T00:03:04;13.40;99.90
14349;DHT22;7258;50.376;8.742;2023-08-07T00:05:07;13.40;99.90
14349;DHT22;7258;50.376;8.742;2023-08-07T00:07:11;13.30;99.90
14349;DHT22;7258;50.376;8.742;2023-08-07T00:09:14;13.30;99.90
14349;DHT22;7258;50.376;8.742;2023-08-07T00:11:17;13.30;99.90
14349;DHT22;7258;50.376;8.742;2023-08-07T00:13:20;13.30;99.90
14349;DHT22;7258;50.376;8.742;2023-08-07T00:15:23;13.30;99.90
14349;DHT22;7258;50.376;8.742;2023-08-07T00:17:26;13.30;99.90
14349;DHT22;7258;50.376;8.742;2023-08-07T00:19:29;13.30;99.90
14349;DHT22;7258;50.376;8.742;2023-08-07T00:21:32;13.30;99.90
14349;DHT22;7258;50.376;8.742;2023-08-07T00:23:38;13.30;99.90
14349;DHT22;7258;50.376;8.742;2023-08-07T00:25:41;13.30;99.90
14349;DHT22;7258;50.376;8.742;2023-08-07T00:27:44;13.20;99.90
14349;DHT22;7258;50.376;8.742;2023-08-07T00:29:46;13.20;99.90
14349;DHT22;7258;50.376;8.742;2023-08-07T00:31:49;13.20;99.90
14349;DHT22;7258;50.376;8.742;2023-08-07T00:33:51;13.20;99.90
14349;DHT22;7258;50.376;8.742;2023-08-07T00:35:56;13.20;99.90
14349;DHT22;7258;50.376;8.742;2023-08-07T00:37:58;13.20;99.90
14349;DHT22;7258;50.376;8.742;2023-08-07T00:40:03;13.20;99.90
14349;DHT22;7258;50.376;8.742;2023-08-07T00:42:06;13.20;99.90
14349;DHT22;7258;50.376;8.742;2023-08-07T00:44:09;13.20;99.90
14349;DHT22;7258;50.376;8.742;2023-08-07T00:46:12;13.10;99.90
14349;DHT22;7258;50.376;8.742;2023-08-07T00:48:15;13.10;99.90
14349;DHT22;7258;50.376;8.742;2023-08-07T00:50:18;13.10;99.90
14349;DHT22;7258;50.376;8.742;2023-08-07T00:52:25;13.00;99.90
14349;DHT22;7258;50.376;8.742;2023-08-07T00:54:28;13.00;99.90
14349;DHT22;7258;50.376;8.742;2023-08-07T00:56:33;13.00;99.90
14349;DHT22;7258;50.376;8.742;2023-08-07T00:58:36;12.90;99.90
14349;DHT22;7258;50.376;8.742;2023-08-07T01:00:39;12.90;99.90
14349;DHT22;7258;50.376;8.742;2023-08-07T01:02:44;12.90;99.90
14349;DHT22;7258;50.376;8.742;2023-08-07T01:04:47;12.80;99.90
14349;DHT22;7258;50.376;8.742;2023-08-07T01:06:49;12.80;99.90
14349;DHT22;7258;50.376;8.742;2023-08-07T01:08:52;12.80;99.90
14349;DHT22;7258;50.376;8.742;2023-08-07T01:11:09;12.80;99.90
14349;DHT22;7258;50.376;8.742;2023-08-07T01:13:24;12.70;99.90
14349;DHT22;7258;50.376;8.742;2023-08-07T01:15:30;12.70;99.90
14349;DHT22;7258;50.376;8.742;2023-08-07T01:17:34;12.70;99.90
14349;DHT22;7258;50.376;8.742;2023-08-07T01:19:38;12.60;99.90
14349;DHT22;7258;50.376;8.742;2023-08-07T01:21:45;12.60;99.90
14349;DHT22;7258;50.376;8.742;2023-08-07T01:23:50;12.50;99.90
14349;DHT22;7258;50.376;8.742;2023-08-07T01:25:53;12.50;99.90
14349;DHT22;7258;50.376;8.742;2023-08-07T01:28:00;12.50;99.90
14349;DHT22;7258;50.376;8.742;2023-08-07T01:30:11;12.50;99.90
14349;DHT22;7258;50.376;8.742;2023-08-07T01:32:21;12.50;99.90
14349;DHT22;7258;50.376;8.742;2023-08-07T01:34:25;12.50;99.90
14349;DHT22;7258;50.376;8.742;2023-08-07T01:36:29;12.50;99.90
14349;DHT22;7258;50.376;8.742;2023-08-07T01:38:34;12.50;99.90
14349;DHT22;7258;50.376;8.742;2023-08-07T01:40:39;12.60;99.90
14349;DHT22;7258;50.376;8.742;2023-08-07T01:42:43;12.60;99.90
14349;DHT22;7258;50.376;8.742;2023-08-07T01:44:46;12.60;99.90
14349;DHT22;7258;50.376;8.742;2023-08-07T01:46:49;12.60;99.90
14349;DHT22;7258;50.376;8.742;2023-08-07T01:48:52;12.60;99.90
14349;DHT22;7258;50.376;8.742;2023-08-07T01:50:55;12.60;99.90
14349;DHT22;7258;50.376;8.742;2023-08-07T01:52:58;12.60;99.90
14349;DHT22;7258;50.376;8.742;2023-08-07T01:55:03;12.60;99.90
14349;DHT22;7258;50.376;8.742;2023-08-07T01:57:06;12.70;99.90
14349;DHT22;7258;50.376;8.742;2023-08-07T01:59:09;12.70;99.90
14349;DHT22;7258;50.376;8.742;2023-08-07T02:01:12;12.70;99.90
14349;DHT22;7258;50.376;8.742;2023-08-07T02:03:15;12.70;99.90
14349;DHT22;7258;50.376;8.742;2023-08-07T02:05:17;12.70;99.90
14349;DHT22;7258;50.376;8.742;2023-08-07T02:07:20;12.70;99.90
14349;DHT22;7258;50.376;8.742;2023-08-07T02:09:22;12.80;99.90
14349;DHT22;7258;50.376;8.742;2023-08-07T02:11:26;12.80;99.90
14349;DHT22;7258;50.376;8.742;2023-08-07T02:13:29;12.80;99.90
14349;DHT22;7258;50.376;8.742;2023-08-07T02:15:31;12.80;99.90
14349;DHT22;7258;50.376;8.742;2023-08-07T02:17:34;12.80;99.90
14349;DHT22;7258;50.376;8.742;2023-08-07T02:19:37;12.80;99.90
14349;DHT22;7258;50.376;8.742;2023-08-07T02:21:40;12.80;99.90
14349;DHT22;7258;50.376;8.742;2023-08-07T02:23:43;12.80;99.90
14349;DHT22;7258;50.376;8.742;2023-08-07T02:25:46;12.80;99.90
14349;DHT22;7258;50.376;8.742;2023-08-07T02:27:50;12.80;99.90
14349;DHT22;7258;50.376;8.742;2023-08-07T02:29:53;12.80;99.90
14349;DHT22;7258;50.376;8.742;2023-08-07T02:31:56;12.80;99.90
14349;DHT22;7258;50.376;8.742;2023-08-07T02:33:59;12.80;99.90
14349;DHT22;7258;50.376;8.742;2023-08-07T02:36:02;12.70;99.90
14349;DHT22;7258;50.376;8.742;2023-08-07T02:38:05;12.70;99.90
14349;DHT22;7258;50.376;8.742;2023-08-07T02:40:09;12.70;99.90
14349;DHT22;7258;50.376;8.742;2023-08-07T02:42:12;12.70;99.90
14349;DHT22;7258;50.376;8.742;2023-08-07T02:44:16;12.70;99.90
14349;DHT22;7258;50.376;8.742;2023-08-07T02:46:20;12.70;99.90
14349;DHT22;7258;50.376;8.742;2023-08-07T02:48:22;12.70;99.90
14349;DHT22;7258;50.376;8.742;2023-08-07T02:50:25;12.70;99.90
14349;DHT22;7258;50.376;8.742;2023-08-07T02:52:31;12.70;99.90
14349;DHT22;7258;50.376;8.742;2023-08-07T02:54:34;12.70;99.90
14349;DHT22;7258;50.376;8.742;2023-08-07T02:56:36;12.70;99.90
14349;DHT22;7258;50.376;8.742;2023-08-07T02:58:40;12.70;99.90
14349;DHT22;7258;50.376;8.742;2023-08-07T03:00:44;12.70;99.90
14349;DHT22;7258;50.376;8.742;2023-08-07T03:02:47;12.70;99.90
14349;DHT22;7258;50.376;8.742;2023-08-07T03:04:50;12.80;99.90
14349;DHT22;7258;50.376;8.742;2023-08-07T03:06:53;12.80;99.90
14349;DHT22;7258;50.376;8.742;2023-08-07T03:08:56;12.70;99.90
14349;DHT22;7258;50.376;8.742;2023-08-07T03:10:59;12.80;99.90
14349;DHT22;7258;50.376;8.742;2023-08-07T03:13:02;12.80;99.90
14349;DHT22;7258;50.376;8.742;2023-08-07T03:15:07;12.80;99.90
14349;DHT22;7258;50.376;8.742;2023-08-07T03:17:11;12.70;99.90
14349;DHT22;7258;50.376;8.742;2023-08-07T03:19:14;12.70;99.90
14349;DHT22;7258;50.376;8.742;2023-08-07T03:21:17;12.70;99.90
14349;DHT22;7258;50.376;8.742;2023-08-07T03:23:20;12.70;99.90
14349;DHT22;7258;50.376;8.742;2023-08-07T03:25:23;12.70;99.90
14349;DHT22;7258;50.376;8.742;2023-08-07T03:27:26;12.70;99.90
14349;DHT22;7258;50.376;8.742;2023-08-07T03:29:29;12.70;99.90
14349;DHT22;7258;50.376;8.742;2023-08-07T03:31:31;12.70;99.90
14349;DHT22;7258;50.376;8.742;2023-08-07T03:33:35;12.70;99.90
14349;DHT22;7258;50.376;8.742;2023-08-07T03:35:38;12.70;99.90
14349;DHT22;7258;50.376;8.742;2023-08-07T03:37:42;12.70;99.90
14349;DHT22;7258;50.376;8.742;2023-08-07T03:39:45;12.70;99.90
14349;DHT22;7258;50.376;8.742;2023-08-07T03:41:49;12.70;99.90
14349;DHT22;7258;50.376;8.742;2023-08-07T03:43:52;12.70;99.90
14349;DHT22;7258;50.376;8.742;2023-08-07T03:45:56;12.70;99.90
14349;DHT22;7258;50.376;8.742;2023-08-07T03:48:04;12.70;99.90
14349;DHT22;7258;50.376;8.742;2023-08-07T03:50:08;12.70;99.90
14349;DHT22;7258;50.376;8.742;2023-08-07T03:52:11;12.70;99.90
14349;DHT22;7258;50.376;8.742;2023-08-07T03:54:14;12.70;99.90
14349;DHT22;7258;50.376;8.742;2023-08-07T03:56:18;12.70;99.90
14349;DHT22;7258;50.376;8.742;2023-08-07T03:58:20;12.70;99.90
14349;DHT22;7258;50.376;8.742;2023-08-07T04:00:23;12.70;99.90
14349;DHT22;7258;50.376;8.742;2023-08-07T04:02:26;12.70;99.90
14349;DHT22;7258;50.376;8.742;2023-08-07T04:04:30;12.70;99.90
14349;DHT22;7258;50.376;8.742;2023-08-07T04:06:34;12.60;99.90
14349;DHT22;7258;50.376;8.742;2023-08-07T04:08:36;12.60;99.90
14349;DHT22;7258;50.376;8.742;2023-08-07T04:10:39;12.70;99.90
14349;DHT22;7258;50.376;8.742;2023-08-07T04:12:42;12.70;99.90
14349;DHT22;7258;50.376;8.742;2023-08-07T04:14:45;12.60;99.90
14349;DHT22;7258;50.376;8.742;2023-08-07T04:16:47;12.70;99.90
14349;DHT22;7258;50.376;8.742;2023-08-07T04:18:49;12.70;99.90
14349;DHT22;7258;50.376;8.742;2023-08-07T04:20:54;12.70;99.90
14349;DHT22;7258;50.376;8.742;2023-08-07T04:22:58;12.70;99.90
14349;DHT22;7258;50.376;8.742;2023-08-07T04:25:02;12.70;99.90
14349;DHT22;7258;50.376;8.742;2023-08-07T04:27:05;12.70;99.90
14349;DHT22;7258;50.376;8.742;2023-08-07T04:29:07;12.70;99.90
14349;DHT22;7258;50.376;8.742;2023-08-07T04:31:10;12.70;99.90
14349;DHT22;7258;50.376;8.742;2023-08-07T04:33:13;12.70;99.90
14349;DHT22;7258;50.376;8.742;2023-08-07T04:35:16;12.70;99.90
14349;DHT22;7258;50.376;8.742;2023-08-07T04:37:17;12.80;99.90
14349;DHT22;7258;50.376;8.742;2023-08-07T04:39:22;12.80;99.90
14349;DHT22;7258;50.376;8.742;2023-08-07T04:41:25;12.80;99.90
14349;DHT22;7258;50.376;8.742;2023-08-07T04:43:28;12.80;99.90
14349;DHT22;7258;50.376;8.742;2023-08-07T04:45:31;12.80;99.90
14349;DHT22;7258;50.376;8.742;2023-08-07T04:47:34;12.80;99.90
14349;DHT22;7258;50.376;8.742;2023-08-07T04:49:37;12.80;99.90
14349;DHT22;7258;50.376;8.742;2023-08-07T04:51:40;12.80;99.90
14349;DHT22;7258;50.376;8.742;2023-08-07T04:53:43;12.80;99.90
14349;DHT22;7258;50.376;8.742;2023-08-07T04:55:47;12.80;99.90
14349;DHT22;7258;50.376;8.742;2023-08-07T04:57:50;12.80;99.90
14349;DHT22;7258;50.376;8.742;2023-08-07T04:59:55;12.80;99.90
14349;DHT22;7258;50.376;8.742;2023-08-07T05:01:58;12.80;99.90
14349;DHT22;7258;50.376;8.742;2023-08-07T05:04:01;12.70;99.90
14349;DHT22;7258;50.376;8.742;2023-08-07T05:06:06;12.80;99.90
14349;DHT22;7258;50.376;8.742;2023-08-07T05:08:11;12.80;99.90
14349;DHT22;7258;50.376;8.742;2023-08-07T05:10:14;12.80;99.90
14349;DHT22;7258;50.376;8.742;2023-08-07T05:12:18;12.80;99.90
14349;DHT22;7258;50.376;8.742;2023-08-07T05:14:21;12.80;99.90
14349;DHT22;7258;50.376;8.742;2023-08-07T05:16:24;12.80;99.90
14349;DHT22;7258;50.376;8.742;2023-08-07T05:18:26;12.90;99.90
14349;DHT22;7258;50.376;8.742;2023-08-07T05:20:28;12.90;99.90
14349;DHT22;7258;50.376;8.742;2023-08-07T05:22:31;12.90;99.90
14349;DHT22;7258;50.376;8.742;2023-08-07T05:24:33;13.00;99.90
14349;DHT22;7258;50.376;8.742;2023-08-07T05:26:41;13.00;99.90
14349;DHT22;7258;50.376;8.742;2023-08-07T05:28:45;13.00;99.90
14349;DHT22;7258;50.376;8.742;2023-08-07T05:30:48;13.00;99.90
14349;DHT22;7258;50.376;8.742;2023-08-07T05:32:50;13.00;99.90
14349;DHT22;7258;50.376;8.742;2023-08-07T05:34:54;13.10;99.90
14349;DHT22;7258;50.376;8.742;2023-08-07T05:36:57;13.10;99.90
14349;DHT22;7258;50.376;8.742;2023-08-07T05:38:59;13.10;99.90
14349;DHT22;7258;50.376;8.742;2023-08-07T05:41:02;13.10;99.90
14349;DHT22;7258;50.376;8.742;2023-08-07T05:43:05;13.10;99.90
14349;DHT22;7258;50.376;8.742;2023-08-07T05:45:10;13.10;99.90
14349;DHT22;7258;50.376;8.742;2023-08-07T05:47:13;13.10;99.90
14349;DHT22;7258;50.376;8.742;2023-08-07T05:49:15;13.20;99.90
14349;DHT22;7258;50.376;8.742;2023-08-07T05:51:18;13.20;99.90
14349;DHT22;7258;50.376;8.742;2023-08-07T05:53:21;13.20;99.90
14349;DHT22;7258;50.376;8.742;2023-08-07T05:55:24;13.30;99.90
14349;DHT22;7258;50.376;8.742;2023-08-07T05:57:26;13.30;99.90
14349;DHT22;7258;50.376;8.742;2023-08-07T05:59:29;13.30;99.90
14349;DHT22;7258;50.376;8.742;2023-08-07T06:01:34;13.30;99.90
14349;DHT22;7258;50.376;8.742;2023-08-07T06:03:38;13.30;99.90
14349;DHT22;7258;50.376;8.742;2023-08-07T06:05:41;13.30;99.90
14349;DHT22;7258;50.376;8.742;2023-08-07T06:07:44;13.40;99.90
14349;DHT22;7258;50.376;8.742;2023-08-07T06:09:47;13.40;99.90
14349;DHT22;7258;50.376;8.742;2023-08-07T06:11:49;13.40;99.90
14349;DHT22;7258;50.376;8.742;2023-08-07T06:13:52;13.40;99.90
14349;DHT22;7258;50.376;8.742;2023-08-07T06:15:55;13.40;99.90
14349;DHT22;7258;50.376;8.742;2023-08-07T06:17:59;13.50;99.90
14349;DHT22;7258;50.376;8.742;2023-08-07T06:20:03;13.50;99.90
14349;DHT22;7258;50.376;8.742;2023-08-07T06:22:07;13.50;99.90
14349;DHT22;7258;50.376;8.742;2023-08-07T06:24:10;13.50;99.90
14349;DHT22;7258;50.376;8.742;2023-08-07T06:26:14;13.60;99.90
14349;DHT22;7258;50.376;8.742;2023-08-07T06:28:18;13.60;99.90
14349;DHT22;7258;50.376;8.742;2023-08-07T06:30:21;13.60;99.90
14349;DHT22;7258;50.376;8.742;2023-08-07T06:32:24;13.60;99.90
14349;DHT22;7258;50.376;8.742;2023-08-07T06:34:28;13.70;99.90
14349;DHT22;7258;50.376;8.742;2023-08-07T06:36:31;13.70;99.90
14349;DHT22;7258;50.376;8.742;2023-08-07T06:38:34;13.70;99.90
14349;DHT22;7258;50.376;8.742;2023-08-07T06:40:37;13.70;99.90
14349;DHT22;7258;50.376;8.742;2023-08-07T06:42:40;13.70;99.90
14349;DHT22;7258;50.376;8.742;2023-08-07T06:44:42;13.70;99.90
14349;DHT22;7258;50.376;8.742;2023-08-07T06:46:45;13.70;99.90
14349;DHT22;7258;50.376;8.742;2023-08-07T06:48:48;13.70;99.90
14349;DHT22;7258;50.376;8.742;2023-08-07T06:50:52;13.70;99.90
14349;DHT22;7258;50.376;8.742;2023-08-07T06:52:55;13.70;99.90
14349;DHT22;7258;50.376;8.742;2023-08-07T06:54:58;13.70;99.90
14349;DHT22;7258;50.376;8.742;2023-08-07T06:57:01;13.70;99.90
14349;DHT22;7258;50.376;8.742;2023-08-07T06:59:04;13.80;99.90
14349;DHT22;7258;50.376;8.742;2023-08-07T07:01:07;13.70;99.90
14349;DHT22;7258;50.376;8.742;2023-08-07T07:03:10;13.70;99.90
14349;DHT22;7258;50.376;8.742;2023-08-07T07:05:13;13.70;99.90
14349;DHT22;7258;50.376;8.742;2023-08-07T07:07:19;13.70;99.90
14349;DHT22;7258;50.376;8.742;2023-08-07T07:09:22;13.80;99.90
14349;DHT22;7258;50.376;8.742;2023-08-07T07:11:24;13.80;99.90
14349;DHT22;7258;50.376;8.742;2023-08-07T07:13:27;13.90;99.90
14349;DHT22;7258;50.376;8.742;2023-08-07T07:15:29;13.90;99.90
14349;DHT22;7258;50.376;8.742;2023-08-07T07:17:32;14.00;99.90
14349;DHT22;7258;50.376;8.742;2023-08-07T07:19:35;14.00;99.90
14349;DHT22;7258;50.376;8.742;2023-08-07T07:21:38;14.00;99.90
14349;DHT22;7258;50.376;8.742;2023-08-07T07:23:42;14.00;99.90
14349;DHT22;7258;50.376;8.742;2023-08-07T07:25:45;14.00;99.90
14349;DHT22;7258;50.376;8.742;2023-08-07T07:27:48;14.00;99.90
14349;DHT22;7258;50.376;8.742;2023-08-07T07:29:51;13.90;99.90
14349;DHT22;7258;50.376;8.742;2023-08-07T07:31:54;13.90;99.90
14349;DHT22;7258;50.376;8.742;2023-08-07T07:33:57;14.00;99.90
14349;DHT22;7258;50.376;8.742;2023-08-07T07:36:00;14.00;99.90
14349;DHT22;7258;50.376;8.742;2023-08-07T07:38:03;14.00;99.90
14349;DHT22;7258;50.376;8.742;2023-08-07T07:40:08;14.10;99.90
14349;DHT22;7258;50.376;8.742;2023-08-07T07:42:11;14.10;99.90
14349;DHT22;7258;50.376;8.742;2023-08-07T07:44:14;14.10;99.90
14349;DHT22;7258;50.376;8.742;2023-08-07T07:46:17;14.10;99.90
14349;DHT22;7258;50.376;8.742;2023-08-07T07:48:19;14.00;99.90
14349;DHT22;7258;50.376;8.742;2023-08-07T07:50:22;14.00;99.90
14349;DHT22;7258;50.376;8.742;2023-08-07T07:52:25;14.00;99.90
14349;DHT22;7258;50.376;8.742;2023-08-07T07:54:28;14.10;99.90
14349;DHT22;7258;50.376;8.742;2023-08-07T07:56:32;14.20;99.90
14349;DHT22;7258;50.376;8.742;2023-08-07T07:58:35;14.20;99.90
14349;DHT22;7258;50.376;8.742;2023-08-07T08:00:38;14.30;99.90
14349;DHT22;7258;50.376;8.742;2023-08-07T08:02:41;14.20;99.90
14349;DHT22;7258;50.376;8.742;2023-08-07T08:04:44;14.20;99.90
14349;DHT22;7258;50.376;8.742;2023-08-07T08:06:48;14.10;99.90
14349;DHT22;7258;50.376;8.742;2023-08-07T08:08:51;14.10;99.90
14349;DHT22;7258;50.376;8.742;2023-08-07T08:10:53;14.10;99.90
14349;DHT22;7258;50.376;8.742;2023-08-07T08:12:58;14.10;99.90
14349;DHT22;7258;50.376;8.742;2023-08-07T08:15:01;14.10;99.90
14349;DHT22;7258;50.376;8.742;2023-08-07T08:17:04;14.10;99.90
14349;DHT22;7258;50.376;8.742;2023-08-07T08:19:07;14.10;99.90
14349;DHT22;7258;50.376;8.742;2023-08-07T08:21:11;14.20;99.90
14349;DHT22;7258;50.376;8.742;2023-08-07T08:23:14;14.20;99.90
14349;DHT22;7258;50.376;8.742;2023-08-07T08:25:17;14.20;99.90
14349;DHT22;7258;50.376;8.742;2023-08-07T08:27:20;14.10;99.90
14349;DHT22;7258;50.376;8.742;2023-08-07T08:29:24;14.20;99.90
14349;DHT22;7258;50.376;8.742;2023-08-07T08:31:29;14.40;99.90
14349;DHT22;7258;50.376;8.742;2023-08-07T08:33:32;14.40;99.90
14349;DHT22;7258;50.376;8.742;2023-08-07T08:35:35;14.40;99.90
14349;DHT22;7258;50.376;8.742;2023-08-07T08:37:38;14.40;99.90
14349;DHT22;7258;50.376;8.742;2023-08-07T08:39:39;14.30;99.90
14349;DHT22;7258;50.376;8.742;2023-08-07T08:41:46;14.30;99.90
14349;DHT22;7258;50.376;8.742;2023-08-07T08:43:51;14.30;99.90
14349;DHT22;7258;50.376;8.742;2023-08-07T08:45:56;14.20;99.90
14349;DHT22;7258;50.376;8.742;2023-08-07T08:48:01;14.20;99.90
14349;DHT22;7258;50.376;8.742;2023-08-07T08:50:07;14.20;99.90
14349;DHT22;7258;50.376;8.742;2023-08-07T08:52:11;14.20;99.90
14349;DHT22;7258;50.376;8.742;2023-08-07T08:54:15;14.20;99.90
14349;DHT22;7258;50.376;8.742;2023-08-07T08:56:19;14.20;99.90
14349;DHT22;7258;50.376;8.742;2023-08-07T08:58:24;14.30;99.90
14349;DHT22;7258;50.376;8.742;2023-08-07T09:00:27;14.40;99.90
14349;DHT22;7258;50.376;8.742;2023-08-07T09:02:33;14.50;99.90
14349;DHT22;7258;50.376;8.742;2023-08-07T09:04:36;14.40;99.90
14349;DHT22;7258;50.376;8.742;2023-08-07T09:06:40;14.50;99.90
14349;DHT22;7258;50.376;8.742;2023-08-07T09:08:45;14.50;99.90
14349;DHT22;7258;50.376;8.742;2023-08-07T09:10:48;14.40;99.90
14349;DHT22;7258;50.376;8.742;2023-08-07T09:12:55;14.40;99.90
14349;DHT22;7258;50.376;8.742;2023-08-07T09:15:02;14.30;99.90
14349;DHT22;7258;50.376;8.742;2023-08-07T09:17:06;14.30;99.90
14349;DHT22;7258;50.376;8.742;2023-08-07T09:19:10;14.30;99.90
14349;DHT22;7258;50.376;8.742;2023-08-07T09:21:13;14.30;99.90
14349;DHT22;7258;50.376;8.742;2023-08-07T09:23:18;14.20;99.90
14349;DHT22;7258;50.376;8.742;2023-08-07T09:25:27;14.20;99.90
14349;DHT22;7258;50.376;8.742;2023-08-07T09:27:30;14.20;99.90
14349;DHT22;7258;50.376;8.742;2023-08-07T09:29:33;14.30;99.90
14349;DHT22;7258;50.376;8.742;2023-08-07T09:31:36;14.20;99.90
14349;DHT22;7258;50.376;8.742;2023-08-07T09:33:39;14.30;99.90
14349;DHT22;7258;50.376;8.742;2023-08-07T09:35:45;14.30;99.90
14349;DHT22;7258;50.376;8.742;2023-08-07T09:37:48;14.30;99.90
14349;DHT22;7258;50.376;8.742;2023-08-07T09:39:51;14.40;99.90
14349;DHT22;7258;50.376;8.742;2023-08-07T09:41:54;14.50;99.90
14349;DHT22;7258;50.376;8.742;2023-08-07T09:43:57;14.60;99.90
14349;DHT22;7258;50.376;8.742;2023-08-07T09:46:03;14.80;99.90
14349;DHT22;7258;50.376;8.742;2023-08-07T09:48:06;14.90;99.90
14349;DHT22;7258;50.376;8.742;2023-08-07T09:50:15;15.00;99.90
14349;DHT22;7258;50.376;8.742;2023-08-07T09:52:19;14.90;99.90
14349;DHT22;7258;50.376;8.742;2023-08-07T09:54:23;14.90;99.90
14349;DHT22;7258;50.376;8.742;2023-08-07T09:56:26;14.80;99.90
14349;DHT22;7258;50.376;8.742;2023-08-07T09:58:29;14.80;99.90
14349;DHT22;7258;50.376;8.742;2023-08-07T10:00:34;14.90;99.90
14349;DHT22;7258;50.376;8.742;2023-08-07T10:02:37;14.90;99.90
14349;DHT22;7258;50.376;8.742;2023-08-07T10:04:41;15.10;99.90
14349;DHT22;7258;50.376;8.742;2023-08-07T10:06:44;15.20;99.90
14349;DHT22;7258;50.376;8.742;2023-08-07T10:08:49;15.40;99.90
14349;DHT22;7258;50.376;8.742;2023-08-07T10:10:52;15.50;99.90
14349;DHT22;7258;50.376;8.742;2023-08-07T10:12:56;15.30;99.90
14349;DHT22;7258;50.376;8.742;2023-08-07T10:15:03;15.20;99.90
14349;DHT22;7258;50.376;8.742;2023-08-07T10:17:06;15.10;99.90
14349;DHT22;7258;50.376;8.742;2023-08-07T10:19:09;15.10;99.90
14349;DHT22;7258;50.376;8.742;2023-08-07T10:21:31;15.20;99.90
14349;DHT22;7258;50.376;8.742;2023-08-07T10:23:40;15.30;99.90
14349;DHT22;7258;50.376;8.742;2023-08-07T10:25:45;15.10;99.90
14349;DHT22;7258;50.376;8.742;2023-08-07T10:27:52;15.00;99.90
14349;DHT22;7258;50.376;8.742;2023-08-07T10:29:56;14.90;99.90
14349;DHT22;7258;50.376;8.742;2023-08-07T10:32:01;14.90;99.90
14349;DHT22;7258;50.376;8.742;2023-08-07T10:34:05;14.90;99.90
14349;DHT22;7258;50.376;8.742;2023-08-07T10:36:08;14.90;99.90
14349;DHT22;7258;50.376;8.742;2023-08-07T10:38:12;14.90;99.90
14349;DHT22;7258;50.376;8.742;2023-08-07T10:40:15;15.00;99.90
14349;DHT22;7258;50.376;8.742;2023-08-07T10:42:20;15.10;99.90
14349;DHT22;7258;50.376;8.742;2023-08-07T10:44:24;15.20;99.90
14349;DHT22;7258;50.376;8.742;2023-08-07T10:46:27;15.30;99.90
14349;DHT22;7258;50.376;8.742;2023-08-07T10:48:54;15.40;99.90
14349;DHT22;7258;50.376;8.742;2023-08-07T10:51:03;15.70;99.90
14349;DHT22;7258;50.376;8.742;2023-08-07T10:53:06;15.70;99.90
14349;DHT22;7258;50.376;8.742;2023-08-07T10:55:13;15.80;99.90
14349;DHT22;7258;50.376;8.742;2023-08-07T10:57:17;15.80;99.90
14349;DHT22;7258;50.376;8.742;2023-08-07T10:59:22;15.70;99.90
14349;DHT22;7258;50.376;8.742;2023-08-07T11:01:39;15.70;99.90
14349;DHT22;7258;50.376;8.742;2023-08-07T11:03:42;15.70;99.90
14349;DHT22;7258;50.376;8.742;2023-08-07T11:05:45;15.80;99.90
14349;DHT22;7258;50.376;8.742;2023-08-07T11:07:48;15.70;99.90
14349;DHT22;7258;50.376;8.742;2023-08-07T11:09:51;15.70;99.90
14349;DHT22;7258;50.376;8.742;2023-08-07T11:11:54;15.70;99.90
14349;DHT22;7258;50.376;8.742;2023-08-07T11:14:01;15.80;99.90
14349;DHT22;7258;50.376;8.742;2023-08-07T11:16:10;15.70;99.90
14349;DHT22;7258;50.376;8.742;2023-08-07T11:18:15;15.70;99.90
14349;DHT22;7258;50.376;8.742;2023-08-07T11:20:19;15.70;99.90
14349;DHT22;7258;50.376;8.742;2023-08-07T11:22:31;15.90;99.90
14349;DHT22;7258;50.376;8.742;2023-08-07T11:24:34;15.90;99.90
14349;DHT22;7258;50.376;8.742;2023-08-07T11:26:39;15.80;99.90
14349;DHT22;7258;50.376;8.742;2023-08-07T11:28:45;15.60;99.90
14349;DHT22;7258;50.376;8.742;2023-08-07T11:30:53;15.60;99.90
14349;DHT22;7258;50.376;8.742;2023-08-07T11:32:58;15.70;99.90
14349;DHT22;7258;50.376;8.742;2023-08-07T11:35:06;15.70;99.90
14349;DHT22;7258;50.376;8.742;2023-08-07T11:37:17;15.60;99.90
14349;DHT22;7258;50.376;8.742;2023-08-07T11:40:23;15.60;99.90
14349;DHT22;7258;50.376;8.742;2023-08-07T11:42:30;15.60;99.90
14349;DHT22;7258;50.376;8.742;2023-08-07T11:44:37;15.50;99.90
14349;DHT22;7258;50.376;8.742;2023-08-07T11:46:41;15.60;99.90
14349;DHT22;7258;50.376;8.742;2023-08-07T11:48:55;15.50;99.90
14349;DHT22;7258;50.376;8.742;2023-08-07T11:51:06;15.50;99.90
14349;DHT22;7258;50.376;8.742;2023-08-07T11:53:11;15.60;99.90
14349;DHT22;7258;50.376;8.742;2023-08-07T11:55:18;15.70;99.90
14349;DHT22;7258;50.376;8.742;2023-08-07T11:57:21;15.80;99.90
14349;DHT22;7258;50.376;8.742;2023-08-07T11:59:24;15.90;99.90
14349;DHT22;7258;50.376;8.742;2023-08-07T12:01:28;16.10;99.90
14349;DHT22;7258;50.376;8.742;2023-08-07T12:03:43;16.10;99.90
14349;DHT22;7258;50.376;8.742;2023-08-07T12:05:46;16.30;99.90
14349;DHT22;7258;50.376;8.742;2023-08-07T12:07:50;16.30;99.90
14349;DHT22;7258;50.376;8.742;2023-08-07T12:09:54;16.30;99.90
14349;DHT22;7258;50.376;8.742;2023-08-07T12:11:58;16.40;99.90
14349;DHT22;7258;50.376;8.742;2023-08-07T12:14:01;16.60;99.90
14349;DHT22;7258;50.376;8.742;2023-08-07T12:16:05;16.60;99.90
14349;DHT22;7258;50.376;8.742;2023-08-07T12:18:08;16.60;99.90
14349;DHT22;7258;50.376;8.742;2023-08-07T12:20:16;16.60;99.90
14349;DHT22;7258;50.376;8.742;2023-08-07T12:22:21;16.60;99.90
14349;DHT22;7258;50.376;8.742;2023-08-07T12:24:24;16.70;99.90
14349;DHT22;7258;50.376;8.742;2023-08-07T12:26:29;16.70;99.90
14349;DHT22;7258;50.376;8.742;2023-08-07T12:28:37;16.90;99.90
14349;DHT22;7258;50.376;8.742;2023-08-07T12:30:47;16.80;99.90
14349;DHT22;7258;50.376;8.742;2023-08-07T12:33:00;16.70;99.90
14349;DHT22;7258;50.376;8.742;2023-08-07T12:35:06;16.80;99.90
14349;DHT22;7258;50.376;8.742;2023-08-07T12:37:13;16.90;99.90
14349;DHT22;7258;50.376;8.742;2023-08-07T12:39:19;17.00;99.90
14349;DHT22;7258;50.376;8.742;2023-08-07T12:41:44;17.10;99.90
14349;DHT22;7258;50.376;8.742;2023-08-07T12:44:08;17.20;99.90
14349;DHT22;7258;50.376;8.742;2023-08-07T12:46:13;17.20;99.90
14349;DHT22;7258;50.376;8.742;2023-08-07T12:48:21;17.30;99.90
14349;DHT22;7258;50.376;8.742;2023-08-07T12:50:28;17.30;99.90
14349;DHT22;7258;50.376;8.742;2023-08-07T12:52:31;17.40;99.90
14349;DHT22;7258;50.376;8.742;2023-08-07T12:54:37;17.40;99.90
14349;DHT22;7258;50.376;8.742;2023-08-07T12:56:48;17.50;99.90
14349;DHT22;7258;50.376;8.742;2023-08-07T12:58:54;17.40;99.90
14349;DHT22;7258;50.376;8.742;2023-08-07T13:01:04;17.40;99.90
14349;DHT22;7258;50.376;8.742;2023-08-07T13:03:16;17.50;99.90
14349;DHT22;7258;50.376;8.742;2023-08-07T13:05:31;17.50;99.90
14349;DHT22;7258;50.376;8.742;2023-08-07T13:07:40;17.50;99.90
14349;DHT22;7258;50.376;8.742;2023-08-07T13:09:52;17.50;99.90
14349;DHT22;7258;50.376;8.742;2023-08-07T13:12:02;17.60;99.90
14349;DHT22;7258;50.376;8.742;2023-08-07T13:14:27;17.80;99.90
14349;DHT22;7258;50.376;8.742;2023-08-07T13:17:05;17.70;99.90
14349;DHT22;7258;50.376;8.742;2023-08-07T13:19:42;17.70;99.90